Time;durP1;ratioP1;P1;durP2;ratioP2;P2;SDS_P1;SDS_P2;PMS_P1;PMS_P2;Temp;Humidity;BMP_temperature;BMP_pressure;BME280_temperature;BME280_humidity;BME280_pressure;Samples;Min_cycle;Max_cycle;Signal;HPM_P1;HPM_P2
2024/01/25 00:01:50;;;;;;;;;;;19.90;45.00;;;;;;5057087;28;19943;-54
2024/01/25 00:04:17;;;;;;;;;;;19.90;45.00;;;;;;5056529;28;19921;-54
2024/01/25 00:06:44;;;;;;;;;;;19.80;44.80;;;;;;5057283;28;20015;-52
2024/01/25 00:09:11;;;;;;;;;;;19.80;44.80;;;;;;5054493;28;19920;-55
2024/01/25 00:11:38;;;;;;;;;;;19.80;44.80;;;;;;5036643;28;19920;-55
2024/01/25 00:14:06;;;;;;;;;;;19.80;44.90;;;;;;5054152;28;19921;-49
2024/01/25 00:16:33;;;;;;;;;;;19.80;44.80;;;;;;5053273;28;19928;-55
2024/01/25 00:18:59;;;;;;;;;;;19.80;44.80;;;;;;5053576;28;19972;-50
2024/01/25 00:21:26;;;;;;;;;;;19.80;44.80;;;;;;5053993;28;19932;-51
2024/01/25 00:23:53;;;;;;;;;;;19.80;44.80;;;;;;5056742;28;20409;-52
2024/01/25 00:26:20;;;;;;;;;;;19.80;44.80;;;;;;5058525;28;19920;-54
2024/01/25 00:28:46;;;;;;;;;;;19.80;44.80;;;;;;5056603;28;19925;-54
2024/01/25 00:31:14;;;;;;;;;;;19.80;44.80;;;;;;5039773;28;19921;-52
2024/01/25 00:33:41;;;;;;;;;;;19.90;44.90;;;;;;5057171;28;19921;-54
2024/01/25 00:36:09;;;;;;;;;;;19.80;44.80;;;;;;5056474;28;19920;-53
2024/01/25 00:38:36;;;;;;;;;;;19.80;44.80;;;;;;5057652;28;19921;-54
2024/01/25 00:41:03;;;;;;;;;;;19.80;44.80;;;;;;5057693;28;19921;-53
2024/01/25 00:43:30;;;;;;;;;;;19.90;44.90;;;;;;5057473;28;19927;-53
2024/01/25 00:45:57;;;;;;;;;;;19.80;44.80;;;;;;5056516;28;19932;-55
2024/01/25 00:48:25;;;;;;;;;;;19.90;44.90;;;;;;5056352;28;19924;-54
2024/01/25 00:50:52;;;;;;;;;;;19.80;44.80;;;;;;5039407;28;19970;-55
2024/01/25 00:53:21;;;;;;;;;;;19.80;44.80;;;;;;5040146;28;19921;-54
2024/01/25 00:55:48;;;;;;;;;;;19.80;44.80;;;;;;5057071;28;19925;-53
2024/01/25 00:58:15;;;;;;;;;;;19.80;44.80;;;;;;5039195;28;19970;-55
2024/01/25 01:00:41;;;;;;;;;;;19.80;44.80;;;;;;5039296;28;19924;-55
2024/01/25 01:03:09;;;;;;;;;;;19.80;44.80;;;;;;5039176;28;19920;-53
2024/01/25 01:05:38;;;;;;;;;;;19.90;44.90;;;;;;5056603;28;19921;-52
2024/01/25 01:08:05;;;;;;;;;;;19.80;44.80;;;;;;5038984;28;19921;-54
2024/01/25 01:10:32;;;;;;;;;;;19.80;44.80;;;;;;5055962;28;19928;-54
2024/01/25 01:12:58;;;;;;;;;;;19.80;44.80;;;;;;5056003;28;19920;-53
2024/01/25 01:15:25;;;;;;;;;;;19.80;44.80;;;;;;5039684;28;19927;-52
2024/01/25 01:17:52;;;;;;;;;;;19.80;44.80;;;;;;5055678;28;19944;-55
2024/01/25 01:20:18;;;;;;;;;;;19.80;44.80;;;;;;5055682;28;19967;-53
2024/01/25 01:22:47;;;;;;;;;;;19.80;44.80;;;;;;5056771;28;19967;-49
2024/01/25 01:25:13;;;;;;;;;;;19.80;44.80;;;;;;5055121;28;19925;-53
2024/01/25 01:27:40;;;;;;;;;;;19.80;44.80;;;;;;5056006;28;19921;-50
2024/01/25 01:30:09;;;;;;;;;;;19.80;44.80;;;;;;5056097;28;20035;-50
2024/01/25 01:32:35;;;;;;;;;;;19.80;44.80;;;;;;5038340;28;19980;-54
2024/01/25 01:35:02;;;;;;;;;;;19.80;44.80;;;;;;5038798;28;19920;-52
2024/01/25 01:37:29;;;;;;;;;;;19.90;44.90;;;;;;5056723;28;19921;-54
2024/01/25 01:39:58;;;;;;;;;;;19.80;44.80;;;;;;5038602;28;19962;-53
2024/01/25 01:42:25;;;;;;;;;;;19.80;44.80;;;;;;5055509;28;19924;-53
2024/01/25 01:44:52;;;;;;;;;;;19.80;44.80;;;;;;5056378;28;19995;-55
2024/01/25 01:47:19;;;;;;;;;;;19.90;44.90;;;;;;5039090;28;19920;-52
2024/01/25 01:49:45;;;;;;;;;;;19.80;44.80;;;;;;5055955;28;19921;-55
2024/01/25 01:52:12;;;;;;;;;;;19.80;44.80;;;;;;5038585;28;19921;-55
2024/01/25 01:54:39;;;;;;;;;;;19.80;44.80;;;;;;5055130;28;19936;-55
2024/01/25 01:57:07;;;;;;;;;;;19.80;44.80;;;;;;5056093;28;19925;-56
2024/01/25 01:59:34;;;;;;;;;;;19.80;44.80;;;;;;5038407;28;19978;-55
2024/01/25 02:02:01;;;;;;;;;;;19.80;44.80;;;;;;5069486;28;19924;-55
2024/01/25 02:04:27;;;;;;;;;;;19.80;44.80;;;;;;5075813;28;19925;-52
2024/01/25 02:06:54;;;;;;;;;;;19.80;44.80;;;;;;5057976;28;19920;-55
2024/01/25 02:09:22;;;;;;;;;;;19.80;44.80;;;;;;5075846;28;20062;-54
2024/01/25 02:11:51;;;;;;;;;;;19.80;44.80;;;;;;5057763;28;19920;-55
2024/01/25 02:14:19;;;;;;;;;;;19.80;44.80;;;;;;5056889;28;19924;-55
2024/01/25 02:16:46;;;;;;;;;;;19.80;44.80;;;;;;5057901;28;19921;-55
2024/01/25 02:19:13;;;;;;;;;;;19.80;44.80;;;;;;5057827;28;19934;-55
2024/01/25 02:21:40;;;;;;;;;;;19.80;44.80;;;;;;5057773;28;19924;-55
2024/01/25 02:24:08;;;;;;;;;;;19.80;44.80;;;;;;5058347;28;19921;-55
2024/01/25 02:26:35;;;;;;;;;;;19.80;44.80;;;;;;5075401;28;19920;-55
2024/01/25 02:29:04;;;;;;;;;;;19.80;44.80;;;;;;5074897;28;19920;-54
2024/01/25 02:31:31;;;;;;;;;;;19.80;44.80;;;;;;5075462;28;19921;-56
2024/01/25 02:33:58;;;;;;;;;;;19.80;44.70;;;;;;5058074;28;20114;-54
2024/01/25 02:36:24;;;;;;;;;;;19.80;44.80;;;;;;5057582;28;19924;-54
2024/01/25 02:38:51;;;;;;;;;;;19.80;44.70;;;;;;5075159;28;19928;-52
2024/01/25 02:41:19;;;;;;;;;;;19.80;44.80;;;;;;5057491;28;19978;-53
2024/01/25 02:43:46;;;;;;;;;;;19.80;44.70;;;;;;5057153;28;19920;-52
2024/01/25 02:46:13;;;;;;;;;;;19.80;44.80;;;;;;5057337;28;20389;-50
2024/01/25 02:48:39;;;;;;;;;;;19.80;44.80;;;;;;5074866;28;19950;-48
2024/01/25 02:51:06;;;;;;;;;;;19.80;44.80;;;;;;5075021;28;19924;-50
2024/01/25 02:53:33;;;;;;;;;;;19.80;44.80;;;;;;5074845;28;19970;-55
2024/01/25 02:56:00;;;;;;;;;;;19.80;44.80;;;;;;5057624;28;19920;-55
2024/01/25 02:58:28;;;;;;;;;;;19.80;44.80;;;;;;5075170;28;19924;-54
2024/01/25 03:00:54;;;;;;;;;;;19.80;44.80;;;;;;5057192;28;19928;-55
2024/01/25 03:03:20;;;;;;;;;;;19.80;44.80;;;;;;5057319;28;19966;-51
2024/01/25 03:05:47;;;;;;;;;;;19.80;44.80;;;;;;5057001;28;19920;-54
2024/01/25 03:08:13;;;;;;;;;;;19.80;44.80;;;;;;5075037;28;19920;-55
2024/01/25 03:10:40;;;;;;;;;;;19.80;44.80;;;;;;5057379;28;19924;-55
2024/01/25 03:13:07;;;;;;;;;;;19.80;44.70;;;;;;5074789;28;19920;-52
2024/01/25 03:15:38;;;;;;;;;;;19.80;44.80;;;;;;5057241;28;19973;-53
2024/01/25 03:18:05;;;;;;;;;;;19.80;44.80;;;;;;5074828;28;19921;-55
2024/01/25 03:20:31;;;;;;;;;;;19.80;44.80;;;;;;5057725;28;19920;-54
2024/01/25 03:22:58;;;;;;;;;;;19.80;44.80;;;;;;5074716;28;19920;-52
2024/01/25 03:25:25;;;;;;;;;;;19.80;44.80;;;;;;5057042;28;19943;-52
2024/01/25 03:27:51;;;;;;;;;;;19.80;44.80;;;;;;5057179;28;19920;-50
2024/01/25 03:30:18;;;;;;;;;;;19.80;44.80;;;;;;5074880;28;19921;-49
2024/01/25 03:32:46;;;;;;;;;;;19.80;44.80;;;;;;5056528;28;19920;-51
2024/01/25 03:35:13;;;;;;;;;;;19.80;44.80;;;;;;5057269;28;19925;-52
2024/01/25 03:37:40;;;;;;;;;;;19.80;44.80;;;;;;5074670;28;19974;-52
2024/01/25 03:40:07;;;;;;;;;;;19.80;44.80;;;;;;5057014;28;19921;-49
2024/01/25 03:42:34;;;;;;;;;;;19.80;44.80;;;;;;5057453;28;20011;-52
2024/01/25 03:45:01;;;;;;;;;;;19.80;44.70;;;;;;5056752;28;19928;-54
2024/01/25 03:47:28;;;;;;;;;;;19.80;44.80;;;;;;5056960;28;19967;-52
2024/01/25 03:49:56;;;;;;;;;;;19.80;44.70;;;;;;5074788;28;20335;-50
2024/01/25 03:52:23;;;;;;;;;;;19.80;44.70;;;;;;5056667;28;20304;-50
2024/01/25 03:54:54;;;;;;;;;;;19.80;44.70;;;;;;5057085;28;20716;-49
2024/01/25 03:57:23;;;;;;;;;;;19.80;44.70;;;;;;5059380;28;19920;-52
2024/01/25 03:59:50;;;;;;;;;;;19.80;44.70;;;;;;5060427;28;19943;-55
2024/01/25 04:02:17;;;;;;;;;;;19.80;44.70;;;;;;5059898;28;19920;-52
2024/01/25 04:04:44;;;;;;;;;;;19.80;44.70;;;;;;5043622;28;19921;-53
2024/01/25 04:07:12;;;;;;;;;;;19.80;44.80;;;;;;5061002;28;19924;-53
2024/01/25 04:09:39;;;;;;;;;;;19.80;44.70;;;;;;5060242;28;19928;-54
2024/01/25 04:12:07;;;;;;;;;;;19.80;44.70;;;;;;5060304;28;19958;-54
2024/01/25 04:14:34;;;;;;;;;;;19.80;44.70;;;;;;5060575;28;19928;-52
2024/01/25 04:17:00;;;;;;;;;;;19.80;44.80;;;;;;5060280;28;19974;-53
2024/01/25 04:19:27;;;;;;;;;;;19.80;45.40;;;;;;5059971;28;19921;-56
2024/01/25 04:21:54;;;;;;;;;;;19.80;44.70;;;;;;5060686;28;19963;-54
2024/01/25 04:24:22;;;;;;;;;;;19.80;44.70;;;;;;5077755;28;19974;-54
2024/01/25 04:26:49;;;;;;;;;;;19.80;44.80;;;;;;5077833;28;19924;-54
2024/01/25 04:29:16;;;;;;;;;;;19.80;44.80;;;;;;5077439;28;19921;-53
2024/01/25 04:31:46;;;;;;;;;;;19.80;44.70;;;;;;5078211;28;19967;-55
2024/01/25 04:34:13;;;;;;;;;;;19.80;44.70;;;;;;5059867;28;19958;-55
2024/01/25 04:36:41;;;;;;;;;;;19.80;44.70;;;;;;5059698;28;19924;-55
2024/01/25 04:39:08;;;;;;;;;;;19.80;44.70;;;;;;5059549;28;19925;-51
2024/01/25 04:41:36;;;;;;;;;;;19.80;44.70;;;;;;5059405;28;19970;-53
2024/01/25 04:44:04;;;;;;;;;;;19.80;44.70;;;;;;5059602;28;19927;-55
2024/01/25 04:46:35;;;;;;;;;;;19.80;44.70;;;;;;5077531;28;19921;-54
2024/01/25 04:49:02;;;;;;;;;;;19.80;44.70;;;;;;5077528;28;19928;-53
2024/01/25 04:51:28;;;;;;;;;;;19.80;44.70;;;;;;5059724;28;20019;-52
2024/01/25 04:53:55;;;;;;;;;;;19.80;44.80;;;;;;5060466;28;20015;-54
2024/01/25 04:56:22;;;;;;;;;;;19.80;44.70;;;;;;5076847;28;19943;-54
2024/01/25 04:58:50;;;;;;;;;;;19.80;44.80;;;;;;5077312;28;19920;-53
2024/01/25 05:01:17;;;;;;;;;;;19.80;44.70;;;;;;5057757;28;19983;-54
2024/01/25 05:03:43;;;;;;;;;;;19.80;44.70;;;;;;5059415;28;19924;-55
2024/01/25 05:06:10;;;;;;;;;;;19.80;44.70;;;;;;5058875;28;19924;-55
2024/01/25 05:08:37;;;;;;;;;;;19.80;44.70;;;;;;5058642;28;19925;-54
2024/01/25 05:11:04;;;;;;;;;;;19.80;44.70;;;;;;5059352;28;19928;-54
2024/01/25 05:13:30;;;;;;;;;;;19.80;44.80;;;;;;5059264;28;19925;-54
2024/01/25 05:15:59;;;;;;;;;;;19.80;44.70;;;;;;5076681;28;19920;-53
2024/01/25 05:18:25;;;;;;;;;;;19.80;44.80;;;;;;5058896;28;19921;-55
2024/01/25 05:20:52;;;;;;;;;;;19.80;44.70;;;;;;5059861;28;19962;-55
2024/01/25 05:23:19;;;;;;;;;;;19.80;44.70;;;;;;5059358;28;19924;-53
2024/01/25 05:25:46;;;;;;;;;;;19.80;44.80;;;;;;5059268;28;19965;-51
2024/01/25 05:28:12;;;;;;;;;;;19.80;44.70;;;;;;5058879;28;19920;-55
2024/01/25 05:30:39;;;;;;;;;;;19.80;44.80;;;;;;5059000;28;19921;-54
2024/01/25 05:33:09;;;;;;;;;;;19.80;44.80;;;;;;5076350;28;19920;-54
2024/01/25 05:35:36;;;;;;;;;;;19.80;44.80;;;;;;5058439;28;19943;-54
2024/01/25 05:38:03;;;;;;;;;;;19.80;44.80;;;;;;5058555;28;19921;-55
2024/01/25 05:40:34;;;;;;;;;;;19.80;44.70;;;;;;5058921;28;19982;-54
2024/01/25 05:43:00;;;;;;;;;;;19.80;44.80;;;;;;5059473;28;19924;-55
2024/01/25 05:45:30;;;;;;;;;;;19.80;45.40;;;;;;5058682;28;19920;-54
2024/01/25 05:47:56;;;;;;;;;;;19.80;44.80;;;;;;5075830;28;19920;-52
2024/01/25 05:50:26;;;;;;;;;;;19.80;44.80;;;;;;5058758;28;19920;-53
2024/01/25 05:52:52;;;;;;;;;;;19.80;44.80;;;;;;5076209;28;19924;-51
2024/01/25 05:55:19;;;;;;;;;;;19.80;44.80;;;;;;5076333;28;19920;-53
2024/01/25 05:57:46;;;;;;;;;;;19.80;44.80;;;;;;5058177;28;19927;-53
2024/01/25 06:00:15;;;;;;;;;;;19.80;45.40;;;;;;5058643;28;19920;-54
2024/01/25 06:02:43;;;;;;;;;;;19.80;45.30;;;;;;5075895;28;20280;-54
2024/01/25 06:05:10;;;;;;;;;;;19.80;44.80;;;;;;5058158;28;19920;-54
2024/01/25 06:07:38;;;;;;;;;;;19.80;44.80;;;;;;5058887;28;20316;-53
2024/01/25 06:10:05;;;;;;;;;;;19.80;44.70;;;;;;5075949;28;19924;-54
2024/01/25 06:12:31;;;;;;;;;;;19.80;44.70;;;;;;5059085;28;19970;-50
2024/01/25 06:14:58;;;;;;;;;;;19.80;44.80;;;;;;5075642;28;19936;-55
2024/01/25 06:17:25;;;;;;;;;;;19.80;44.70;;;;;;5075795;28;19928;-54
2024/01/25 06:19:51;;;;;;;;;;;19.80;44.70;;;;;;5058061;28;19924;-53
2024/01/25 06:22:21;;;;;;;;;;;19.80;44.80;;;;;;5076435;28;19920;-53
2024/01/25 06:24:49;;;;;;;;;;;19.80;44.70;;;;;;5058699;28;19927;-55
2024/01/25 06:27:16;;;;;;;;;;;19.80;44.70;;;;;;5075858;28;19946;-55
2024/01/25 06:29:43;;;;;;;;;;;19.80;44.70;;;;;;5057987;28;19974;-55
2024/01/25 06:32:10;;;;;;;;;;;19.80;44.70;;;;;;5076277;28;19920;-54
2024/01/25 06:34:37;;;;;;;;;;;19.80;44.70;;;;;;5075036;28;20324;-55
2024/01/25 06:37:04;;;;;;;;;;;19.80;44.80;;;;;;5057598;28;19920;-53
2024/01/25 06:39:30;;;;;;;;;;;19.80;44.70;;;;;;5057558;28;19924;-53
2024/01/25 06:41:58;;;;;;;;;;;19.80;44.70;;;;;;5057723;28;20332;-54
2024/01/25 06:44:25;;;;;;;;;;;19.80;44.70;;;;;;5058456;28;19925;-55
2024/01/25 06:46:52;;;;;;;;;;;19.80;44.70;;;;;;5054961;28;19925;-52
2024/01/25 06:49:19;;;;;;;;;;;19.80;44.70;;;;;;5073044;28;19935;-55
2024/01/25 06:51:45;;;;;;;;;;;19.80;44.70;;;;;;5055062;28;19921;-52
2024/01/25 06:54:12;;;;;;;;;;;19.80;44.70;;;;;;5054971;28;19924;-54
2024/01/25 06:56:39;;;;;;;;;;;19.80;44.70;;;;;;5057243;28;19985;-53
2024/01/25 06:59:07;;;;;;;;;;;19.70;44.60;;;;;;5055212;28;19924;-52
2024/01/25 07:01:34;;;;;;;;;;;19.80;44.70;;;;;;5052673;28;19974;-54
2024/01/25 07:04:00;;;;;;;;;;;19.80;44.70;;;;;;5055641;28;19981;-55
2024/01/25 07:06:28;;;;;;;;;;;19.80;44.70;;;;;;5055281;28;19924;-55
2024/01/25 07:08:55;;;;;;;;;;;19.80;44.70;;;;;;5057780;28;19920;-54
2024/01/25 07:11:22;;;;;;;;;;;19.80;44.70;;;;;;5052761;28;19921;-54
2024/01/25 07:13:48;;;;;;;;;;;19.80;44.80;;;;;;5054536;28;19970;-56
2024/01/25 07:16:16;;;;;;;;;;;19.80;45.30;;;;;;5058608;28;19928;-55
2024/01/25 07:18:43;;;;;;;;;;;19.80;44.80;;;;;;5054519;28;20251;-49
2024/01/25 07:21:10;;;;;;;;;;;19.80;44.40;;;;;;5071786;28;19974;-52
2024/01/25 07:23:37;;;;;;;;;;;19.70;41.60;;;;;;5069913;28;19926;-54
2024/01/25 07:26:03;;;;;;;;;;;19.60;40.00;;;;;;5063144;28;20392;-55
2024/01/25 07:28:30;;;;;;;;;;;19.50;39.30;;;;;;5073637;28;19921;-48
2024/01/25 07:30:57;;;;;;;;;;;19.30;40.00;;;;;;5050950;28;19921;-50
2024/01/25 07:33:25;;;;;;;;;;;19.20;40.70;;;;;;5060313;28;19921;-48
2024/01/25 07:35:51;;;;;;;;;;;19.10;41.30;;;;;;5054864;28;19921;-45
2024/01/25 07:38:18;;;;;;;;;;;19.00;41.60;;;;;;5059179;28;20023;-47
2024/01/25 07:40:45;;;;;;;;;;;19.00;41.80;;;;;;5055600;28;19942;-49
2024/01/25 07:43:12;;;;;;;;;;;19.00;41.90;;;;;;5055550;28;19938;-51
2024/01/25 07:45:40;;;;;;;;;;;19.00;41.90;;;;;;5074020;28;19920;-48
2024/01/25 07:48:06;;;;;;;;;;;19.00;42.00;;;;;;5073975;28;19920;-49
2024/01/25 07:50:35;;;;;;;;;;;19.00;42.10;;;;;;5056374;28;19931;-47
2024/01/25 07:53:03;;;;;;;;;;;19.00;42.10;;;;;;5072165;28;19921;-53
2024/01/25 07:55:30;;;;;;;;;;;19.00;42.20;;;;;;5055541;28;20034;-47
2024/01/25 07:57:57;;;;;;;;;;;19.00;42.30;;;;;;5073093;28;20179;-54
2024/01/25 08:00:23;;;;;;;;;;;19.00;42.30;;;;;;5057832;28;19936;-47
2024/01/25 08:02:50;;;;;;;;;;;19.00;42.40;;;;;;5055798;28;19929;-46
2024/01/25 08:05:17;;;;;;;;;;;19.00;42.30;;;;;;5057980;28;19924;-51
2024/01/25 08:07:47;;;;;;;;;;;19.00;42.30;;;;;;5058694;28;19924;-47
2024/01/25 08:10:13;;;;;;;;;;;19.00;42.20;;;;;;5071116;28;19925;-49
2024/01/25 08:12:43;;;;;;;;;;;19.00;42.20;;;;;;5073556;28;19967;-46
2024/01/25 08:15:10;;;;;;;;;;;19.00;42.10;;;;;;5055893;28;20132;-51
2024/01/25 08:17:37;;;;;;;;;;;19.00;42.20;;;;;;5074122;28;19981;-51
2024/01/25 08:20:05;;;;;;;;;;;19.00;42.20;;;;;;5058249;28;19921;-52
2024/01/25 08:22:33;;;;;;;;;;;19.00;42.30;;;;;;5055551;28;19927;-47
2024/01/25 08:25:01;;;;;;;;;;;19.00;42.30;;;;;;5073425;28;19932;-50
2024/01/25 08:27:27;;;;;;;;;;;19.00;42.30;;;;;;5069951;28;19982;-53
2024/01/25 08:29:54;;;;;;;;;;;18.90;42.30;;;;;;5058015;28;20267;-46
2024/01/25 08:32:21;;;;;;;;;;;19.00;42.40;;;;;;5054685;28;19925;-47
2024/01/25 08:34:47;;;;;;;;;;;19.00;42.30;;;;;;5054348;28;19928;-49
2024/01/25 08:37:14;;;;;;;;;;;19.00;42.30;;;;;;5053740;28;19924;-53
2024/01/25 08:39:43;;;;;;;;;;;19.00;42.20;;;;;;5054902;28;19987;-56
2024/01/25 08:42:11;;;;;;;;;;;19.00;42.40;;;;;;5054659;28;20024;-55
2024/01/25 08:44:38;;;;;;;;;;;19.00;42.50;;;;;;5072453;28;19927;-57
2024/01/25 08:47:05;;;;;;;;;;;19.00;42.50;;;;;;5072562;28;20178;-53
2024/01/25 08:49:38;;;;;;;;;;;19.00;42.50;;;;;;5055731;28;19963;-55
2024/01/25 08:52:06;;;;;;;;;;;19.10;42.70;;;;;;5054558;28;19929;-57
2024/01/25 08:54:33;;;;;;;;;;;19.10;42.70;;;;;;5055492;28;19924;-54
2024/01/25 08:57:00;;;;;;;;;;;19.10;42.80;;;;;;5055013;28;19921;-53
2024/01/25 08:59:30;;;;;;;;;;;19.20;42.90;;;;;;5052415;28;19959;-56
2024/01/25 09:01:57;;;;;;;;;;;19.20;43.00;;;;;;5070595;28;19927;-56
2024/01/25 09:04:24;;;;;;;;;;;19.20;43.00;;;;;;5056211;28;19924;-56
2024/01/25 09:06:50;;;;;;;;;;;19.30;43.10;;;;;;5054391;28;19972;-57
2024/01/25 09:09:17;;;;;;;;;;;19.30;43.10;;;;;;5072011;28;19921;-55
2024/01/25 09:11:44;;;;;;;;;;;19.30;43.10;;;;;;5060670;28;19921;-57
2024/01/25 09:14:11;;;;;;;;;;;19.30;43.20;;;;;;5054188;28;19974;-57
2024/01/25 09:16:39;;;;;;;;;;;19.30;43.20;;;;;;5054107;28;20191;-58
2024/01/25 09:19:05;;;;;;;;;;;19.30;43.20;;;;;;5071638;28;19921;-58
2024/01/25 09:21:32;;;;;;;;;;;19.40;43.30;;;;;;5055271;28;19962;-58
2024/01/25 09:23:59;;;;;;;;;;;19.40;43.30;;;;;;5054512;28;19970;-58
2024/01/25 09:26:26;;;;;;;;;;;19.40;43.40;;;;;;5053389;28;20015;-58
2024/01/25 09:28:52;;;;;;;;;;;19.40;43.40;;;;;;5054941;28;19924;-58
2024/01/25 09:31:19;;;;;;;;;;;19.50;43.40;;;;;;5054079;28;19920;-58
2024/01/25 09:33:47;;;;;;;;;;;19.50;43.40;;;;;;5054560;28;19932;-58
2024/01/25 09:36:14;;;;;;;;;;;19.50;43.40;;;;;;5050778;28;19928;-57
2024/01/25 09:38:40;;;;;;;;;;;19.50;43.40;;;;;;5059373;28;19971;-54
2024/01/25 09:41:07;;;;;;;;;;;19.50;43.50;;;;;;5054890;28;19937;-57
2024/01/25 09:43:34;;;;;;;;;;;19.50;43.50;;;;;;5076171;28;19924;-52
2024/01/25 09:46:01;;;;;;;;;;;19.50;43.50;;;;;;5061399;28;19927;-57
2024/01/25 09:48:27;;;;;;;;;;;19.60;43.60;;;;;;5055495;28;19940;-57
2024/01/25 09:50:56;;;;;;;;;;;19.60;43.60;;;;;;5054795;28;20082;-57
2024/01/25 09:53:23;;;;;;;;;;;19.60;43.60;;;;;;5060195;28;19925;-57
2024/01/25 09:55:53;;;;;;;;;;;19.60;43.60;;;;;;5076649;28;19977;-56
2024/01/25 09:58:20;;;;;;;;;;;19.60;43.60;;;;;;5077385;28;19932;-56
2024/01/25 10:00:47;;;;;;;;;;;19.60;43.60;;;;;;5071101;28;19977;-57
2024/01/25 10:03:13;;;;;;;;;;;19.60;43.60;;;;;;5059738;28;19932;-54
2024/01/25 10:05:40;;;;;;;;;;;19.70;43.70;;;;;;5059959;28;19927;-54
2024/01/25 10:08:13;;;;;;;;;;;19.70;43.70;;;;;;5061279;28;19985;-57
2024/01/25 10:10:39;;;;;;;;;;;19.70;43.70;;;;;;5076895;28;19931;-57
2024/01/25 10:13:06;;;;;;;;;;;19.70;43.70;;;;;;5075018;28;19920;-57
2024/01/25 10:15:34;;;;;;;;;;;19.70;43.70;;;;;;5069763;28;19924;-57
2024/01/25 10:18:01;;;;;;;;;;;19.70;43.70;;;;;;5062142;28;19920;-57
2024/01/25 10:20:27;;;;;;;;;;;19.70;43.70;;;;;;5065041;28;19986;-52
2024/01/25 10:22:54;;;;;;;;;;;19.70;43.80;;;;;;5078030;28;19998;-56
2024/01/25 10:25:22;;;;;;;;;;;19.70;43.80;;;;;;5069359;28;19944;-57
2024/01/25 10:27:49;;;;;;;;;;;19.80;43.90;;;;;;5055659;28;19974;-57
2024/01/25 10:30:15;;;;;;;;;;;19.70;43.80;;;;;;5075855;28;20001;-57
2024/01/25 10:32:42;;;;;;;;;;;19.70;43.80;;;;;;5054093;28;19928;-57
2024/01/25 10:35:09;;;;;;;;;;;19.80;43.90;;;;;;5053097;28;19969;-57
2024/01/25 10:37:36;;;;;;;;;;;19.80;43.90;;;;;;5066436;28;19920;-57
2024/01/25 10:40:03;;;;;;;;;;;19.80;43.90;;;;;;5053623;28;19932;-55
2024/01/25 10:42:31;;;;;;;;;;;19.80;44.00;;;;;;5050452;28;19924;-57
2024/01/25 10:44:58;;;;;;;;;;;19.80;44.00;;;;;;5053011;28;19927;-55
2024/01/25 10:47:27;;;;;;;;;;;19.80;44.00;;;;;;5050739;28;20001;-56
2024/01/25 10:49:54;;;;;;;;;;;19.80;44.00;;;;;;5053985;28;19935;-56
2024/01/25 10:52:20;;;;;;;;;;;19.80;44.00;;;;;;5051980;28;19962;-57
2024/01/25 10:54:47;;;;;;;;;;;19.80;44.00;;;;;;5053253;28;19924;-56
2024/01/25 10:57:14;;;;;;;;;;;19.80;44.00;;;;;;5070602;28;19940;-57
2024/01/25 10:59:42;;;;;;;;;;;19.80;44.00;;;;;;5070526;28;19931;-57
2024/01/25 11:02:08;;;;;;;;;;;19.80;44.00;;;;;;5070526;28;19977;-56
2024/01/25 11:04:35;;;;;;;;;;;19.80;44.00;;;;;;5056681;28;19931;-57
2024/01/25 11:07:05;;;;;;;;;;;19.80;44.00;;;;;;5051777;28;19985;-57
2024/01/25 11:09:32;;;;;;;;;;;19.80;44.10;;;;;;5068324;28;19944;-57
2024/01/25 11:11:59;;;;;;;;;;;19.80;44.00;;;;;;5052108;28;19939;-53
2024/01/25 11:14:26;;;;;;;;;;;19.80;44.00;;;;;;5052722;28;19920;-57
2024/01/25 11:16:54;;;;;;;;;;;19.80;44.00;;;;;;5053722;28;19920;-56
2024/01/25 11:19:21;;;;;;;;;;;19.90;44.10;;;;;;5051210;28;19938;-56
2024/01/25 11:21:48;;;;;;;;;;;19.90;44.10;;;;;;5070316;28;19982;-58
2024/01/25 11:24:14;;;;;;;;;;;19.90;44.10;;;;;;5069905;28;19920;-55
2024/01/25 11:26:41;;;;;;;;;;;19.90;44.10;;;;;;5052606;28;19944;-57
2024/01/25 11:29:08;;;;;;;;;;;19.90;44.10;;;;;;5051947;28;19978;-57
2024/01/25 11:31:35;;;;;;;;;;;19.90;44.20;;;;;;5069420;28;19932;-57
2024/01/25 11:34:03;;;;;;;;;;;19.90;44.10;;;;;;5051204;28;19955;-55
2024/01/25 11:36:30;;;;;;;;;;;19.90;44.20;;;;;;5052255;28;19927;-56
2024/01/25 11:38:57;;;;;;;;;;;19.90;44.10;;;;;;5050533;28;19970;-57
2024/01/25 11:41:24;;;;;;;;;;;19.90;44.20;;;;;;5051827;28;19921;-53
2024/01/25 11:43:50;;;;;;;;;;;19.90;44.20;;;;;;5048205;28;19936;-55
2024/01/25 11:46:17;;;;;;;;;;;19.90;44.20;;;;;;5065034;28;19925;-57
2024/01/25 11:48:44;;;;;;;;;;;19.90;44.20;;;;;;5069317;28;19924;-53
2024/01/25 11:51:12;;;;;;;;;;;19.90;44.20;;;;;;5047846;28;19927;-55
2024/01/25 11:53:39;;;;;;;;;;;19.90;44.20;;;;;;5052144;28;19928;-57
2024/01/25 11:56:06;;;;;;;;;;;19.90;44.20;;;;;;5067996;28;19924;-55
2024/01/25 11:58:33;;;;;;;;;;;19.90;44.20;;;;;;5047011;28;19921;-56
2024/01/25 12:01:00;;;;;;;;;;;20.00;44.30;;;;;;5053540;28;19925;-57
2024/01/25 12:03:26;;;;;;;;;;;20.00;44.30;;;;;;5054909;28;20082;-57
2024/01/25 12:05:53;;;;;;;;;;;20.00;44.30;;;;;;5060619;28;19955;-47
2024/01/25 12:08:21;;;;;;;;;;;19.90;43.60;;;;;;5051665;28;19936;-56
2024/01/25 12:10:49;;;;;;;;;;;19.90;41.30;;;;;;5069617;28;19934;-57
2024/01/25 12:13:17;;;;;;;;;;;19.80;42.40;;;;;;5068814;28;19924;-56
2024/01/25 12:15:44;;;;;;;;;;;19.80;42.70;;;;;;5052721;28;19921;-57
2024/01/25 12:18:10;;;;;;;;;;;19.80;43.00;;;;;;5053402;28;19944;-55
2024/01/25 12:20:37;;;;;;;;;;;19.80;43.20;;;;;;5072958;28;19920;-56
2024/01/25 12:23:04;;;;;;;;;;;19.80;43.40;;;;;;5054919;28;20010;-55
2024/01/25 12:25:32;;;;;;;;;;;19.80;43.50;;;;;;5055452;28;19924;-56
2024/01/25 12:28:00;;;;;;;;;;;19.80;43.50;;;;;;5072948;28;19973;-55
2024/01/25 12:30:27;;;;;;;;;;;19.80;43.60;;;;;;5053827;28;19939;-57
2024/01/25 12:32:54;;;;;;;;;;;19.80;43.70;;;;;;5071921;28;19927;-57
2024/01/25 12:35:20;;;;;;;;;;;19.80;43.70;;;;;;5072364;28;20030;-57
2024/01/25 12:37:47;;;;;;;;;;;19.80;43.80;;;;;;5072491;28;19927;-57
2024/01/25 12:40:14;;;;;;;;;;;19.80;43.80;;;;;;5054957;28;19977;-56
2024/01/25 12:42:42;;;;;;;;;;;19.90;43.90;;;;;;5054330;28;19945;-56
2024/01/25 12:45:09;;;;;;;;;;;19.80;43.90;;;;;;5054385;28;19921;-57
2024/01/25 12:47:36;;;;;;;;;;;19.80;43.90;;;;;;5070537;28;19928;-57
2024/01/25 12:50:03;;;;;;;;;;;19.90;44.10;;;;;;5050908;28;19966;-57
2024/01/25 12:52:30;;;;;;;;;;;19.90;44.00;;;;;;5054531;28;20423;-57
2024/01/25 12:54:57;;;;;;;;;;;19.90;44.00;;;;;;5070264;28;19990;-57
2024/01/25 12:57:24;;;;;;;;;;;19.90;44.00;;;;;;5073031;28;19921;-57
2024/01/25 12:59:52;;;;;;;;;;;19.90;44.10;;;;;;5054303;28;19920;-56
2024/01/25 13:02:18;;;;;;;;;;;19.90;44.10;;;;;;5071980;28;19925;-56
2024/01/25 13:04:45;;;;;;;;;;;19.90;44.10;;;;;;5069528;28;19961;-56
2024/01/25 13:07:12;;;;;;;;;;;19.90;44.10;;;;;;5052999;28;19920;-57
2024/01/25 13:09:38;;;;;;;;;;;19.90;44.10;;;;;;5054641;28;20431;-56
2024/01/25 13:12:05;;;;;;;;;;;19.90;44.10;;;;;;5051982;28;19924;-57
2024/01/25 13:14:33;;;;;;;;;;;19.90;44.20;;;;;;5071992;28;19921;-53
2024/01/25 13:17:01;;;;;;;;;;;20.00;44.30;;;;;;5072142;28;19978;-54
2024/01/25 13:19:28;;;;;;;;;;;20.00;44.30;;;;;;5051976;28;19968;-57
2024/01/25 13:21:54;;;;;;;;;;;20.00;44.30;;;;;;5053692;28;19920;-55
2024/01/25 13:24:21;;;;;;;;;;;20.00;44.30;;;;;;5053085;28;19932;-55
2024/01/25 13:26:48;;;;;;;;;;;20.00;44.40;;;;;;5071377;28;19930;-57
2024/01/25 13:29:14;;;;;;;;;;;20.00;44.40;;;;;;5070642;28;19935;-56
2024/01/25 13:31:41;;;;;;;;;;;20.00;44.40;;;;;;5054167;28;19982;-54
2024/01/25 13:34:09;;;;;;;;;;;20.00;44.40;;;;;;5051721;28;19928;-57
2024/01/25 13:36:36;;;;;;;;;;;20.00;44.40;;;;;;5071487;28;19924;-49
2024/01/25 13:39:03;;;;;;;;;;;20.00;43.60;;;;;;5052940;28;19928;-50
2024/01/25 13:41:30;;;;;;;;;;;20.00;40.40;;;;;;5050233;28;19925;-52
2024/01/25 13:43:57;;;;;;;;;;;19.90;39.50;;;;;;5071162;28;19924;-54
2024/01/25 13:46:23;;;;;;;;;;;19.80;39.10;;;;;;5052399;28;19924;-56
2024/01/25 13:48:50;;;;;;;;;;;19.60;39.20;;;;;;5054420;28;19931;-56
2024/01/25 13:51:18;;;;;;;;;;;19.50;40.00;;;;;;5053487;28;20002;-57
2024/01/25 13:53:45;;;;;;;;;;;19.50;40.70;;;;;;5049418;28;19947;-57
2024/01/25 13:56:12;;;;;;;;;;;19.40;41.10;;;;;;5066005;28;19952;-56
2024/01/25 13:58:39;;;;;;;;;;;19.50;41.50;;;;;;5070457;28;19936;-56
2024/01/25 14:01:06;;;;;;;;;;;19.50;41.80;;;;;;5070006;28;19928;-55
2024/01/25 14:03:32;;;;;;;;;;;19.50;42.00;;;;;;5070400;28;19920;-57
2024/01/25 14:06:03;;;;;;;;;;;19.50;42.20;;;;;;5068349;28;19932;-56
2024/01/25 14:08:32;;;;;;;;;;;19.50;42.30;;;;;;5053651;28;19920;-57
2024/01/25 14:10:58;;;;;;;;;;;19.50;42.40;;;;;;5052631;28;19920;-57
2024/01/25 14:13:25;;;;;;;;;;;19.60;42.50;;;;;;5047192;28;19920;-56
2024/01/25 14:15:52;;;;;;;;;;;19.60;42.60;;;;;;5054228;28;19932;-56